UKV7371 KMIA-CYUL
Flight info
| Callsign | UKV7371 |
|---|---|
| Flight time | 2h 56m |
| Altitude | 40000 |
| Route | FOLZZ3 ALYRA DCT GRUBR/N0489F410 Y299 SEELO DCT WAALT Q131 EARZZ DCT JAMIE Q133 PBERG CARTR5 |
| Aircraft | A359/H-SDE2E3GHIJ3J4J5LM1ORWXY/LB1D1 |
Departure
| Time | 2026-05-05 09:26 |
|---|---|
| Airport | Miami International Airport (KMIA) |
Arrival
| Time | 2026-05-05 12:22 |
|---|---|
| Airport | Montreal / Pierre Elliott Trudeau International Airport (CYUL) |
| Time | Latitude | Longitude | Altitude | Speed | Heading |
|---|---|---|---|---|---|
| 2026-05-05 08:46 | 25.79398 | -80.28409 | 21 ft | 0 kts | 4° |
| 2026-05-05 09:16 | 25.79376 | -80.28411 | 21 ft | 4 kts | 4° |
| 2026-05-05 09:16 | 25.79355 | -80.28411 | 24 ft | 4 kts | 343° |
| 2026-05-05 09:16 | 25.79336 | -80.28397 | 24 ft | 4 kts | 293° |
| 2026-05-05 09:16 | 25.79331 | -80.28370 | 25 ft | 3 kts | 266° |
| 2026-05-05 09:17 | 25.79330 | -80.28391 | 25 ft | 4 kts | 266° |
| 2026-05-05 09:17 | 25.79328 | -80.28414 | 21 ft | 0 kts | 266° |
| 2026-05-05 09:20 | 25.79327 | -80.28433 | 24 ft | 8 kts | 265° |
| 2026-05-05 09:20 | 25.79321 | -80.28512 | 21 ft | 12 kts | 265° |
| 2026-05-05 09:20 | 25.79327 | -80.28613 | 22 ft | 15 kts | 287° |
| 2026-05-05 09:21 | 25.79385 | -80.28736 | 24 ft | 20 kts | 299° |
| 2026-05-05 09:21 | 25.79455 | -80.28877 | 22 ft | 22 kts | 299° |
| 2026-05-05 09:21 | 25.79532 | -80.29031 | 22 ft | 24 kts | 298° |
| 2026-05-05 09:21 | 25.79613 | -80.29183 | 22 ft | 25 kts | 301° |
| 2026-05-05 09:22 | 25.79700 | -80.29360 | 26 ft | 27 kts | 298° |
| 2026-05-05 09:22 | 25.79795 | -80.29541 | 23 ft | 25 kts | 301° |
| 2026-05-05 09:22 | 25.79876 | -80.29693 | 21 ft | 18 kts | 295° |
| 2026-05-05 09:22 | 25.79931 | -80.29829 | 23 ft | 21 kts | 294° |
| 2026-05-05 09:23 | 25.79970 | -80.29938 | 24 ft | 7 kts | 288° |
| 2026-05-05 09:23 | 25.79973 | -80.29951 | 23 ft | 0 kts | 288° |
| 2026-05-05 09:24 | 25.79985 | -80.30003 | 22 ft | 15 kts | 284° |
| 2026-05-05 09:24 | 25.80033 | -80.30090 | 20 ft | 14 kts | 358° |
| 2026-05-05 09:24 | 25.80076 | -80.30004 | 22 ft | 17 kts | 87° |
| 2026-05-05 09:24 | 25.80080 | -80.29921 | 19 ft | 0 kts | 88° |
| 2026-05-05 09:25 | 25.80087 | -80.29777 | 20 ft | 56 kts | 88° |
| 2026-05-05 09:25 | 25.80115 | -80.29049 | 24 ft | 128 kts | 87° |
| 2026-05-05 09:25 | 25.80165 | -80.27850 | 204 ft | 169 kts | 87° |
| 2026-05-05 09:26 | 25.80185 | -80.26588 | 1081 ft | 163 kts | 93° |
| 2026-05-05 09:26 | 25.79989 | -80.25262 | 1669 ft | 187 kts | 104° |
| 2026-05-05 09:26 | 25.79487 | -80.23826 | 2062 ft | 216 kts | 115° |
| 2026-05-05 09:26 | 25.78778 | -80.22269 | 2677 ft | 231 kts | 116° |
| 2026-05-05 09:27 | 25.78022 | -80.20637 | 3194 ft | 249 kts | 117° |
| 2026-05-05 09:27 | 25.77485 | -80.19473 | 3713 ft | 255 kts | 117° |
| 2026-05-05 09:27 | 25.76398 | -80.17117 | 4767 ft | 263 kts | 118° |
| 2026-05-05 09:27 | 25.75506 | -80.15320 | 5561 ft | 267 kts | 120° |
| 2026-05-05 09:28 | 25.74662 | -80.13500 | 6283 ft | 275 kts | 112° |
| 2026-05-05 09:28 | 25.74339 | -80.11421 | 7084 ft | 282 kts | 87° |
| 2026-05-05 09:28 | 25.74908 | -80.09317 | 7941 ft | 287 kts | 59° |
| 2026-05-05 09:28 | 25.76121 | -80.07553 | 8809 ft | 291 kts | 49° |
| 2026-05-05 09:29 | 25.77480 | -80.05867 | 9672 ft | 295 kts | 48° |
| 2026-05-05 09:29 | 25.78869 | -80.04149 | 10388 ft | 307 kts | 48° |
| 2026-05-05 09:29 | 25.80342 | -80.02309 | 10745 ft | 332 kts | 48° |
| 2026-05-05 09:29 | 25.81924 | -80.00318 | 11078 ft | 354 kts | 48° |
| 2026-05-05 09:30 | 25.83591 | -79.98211 | 11445 ft | 372 kts | 48° |
| 2026-05-05 09:30 | 25.85318 | -79.96020 | 12071 ft | 380 kts | 48° |
| 2026-05-05 09:30 | 25.87096 | -79.93762 | 12759 ft | 386 kts | 48° |
| 2026-05-05 09:30 | 25.88854 | -79.91528 | 13472 ft | 391 kts | 47° |
| 2026-05-05 09:31 | 25.90654 | -79.89237 | 14177 ft | 395 kts | 47° |
| 2026-05-05 09:31 | 25.92469 | -79.86927 | 14856 ft | 399 kts | 47° |
| 2026-05-05 09:31 | 25.94305 | -79.84588 | 15518 ft | 404 kts | 47° |
| 2026-05-05 09:31 | 25.96159 | -79.82227 | 16181 ft | 407 kts | 47° |
| 2026-05-05 09:32 | 25.98029 | -79.79842 | 16843 ft | 411 kts | 47° |
| 2026-05-05 09:32 | 25.99918 | -79.77433 | 17484 ft | 416 kts | 47° |
| 2026-05-05 09:32 | 26.01824 | -79.75000 | 18121 ft | 419 kts | 47° |
| 2026-05-05 09:32 | 26.03748 | -79.72542 | 18758 ft | 423 kts | 47° |
| 2026-05-05 09:33 | 26.05688 | -79.70063 | 19377 ft | 427 kts | 47° |
| 2026-05-05 09:33 | 26.07649 | -79.67557 | 19991 ft | 431 kts | 46° |
| 2026-05-05 09:33 | 26.09627 | -79.65023 | 20575 ft | 436 kts | 47° |
| 2026-05-05 09:33 | 26.11508 | -79.62351 | 21145 ft | 441 kts | 52° |
| 2026-05-05 09:34 | 26.13300 | -79.59562 | 21689 ft | 445 kts | 52° |
| 2026-05-05 09:34 | 26.15093 | -79.56731 | 22244 ft | 449 kts | 52° |
| 2026-05-05 09:34 | 26.16899 | -79.53877 | 22789 ft | 453 kts | 52° |
| 2026-05-05 09:34 | 26.18727 | -79.50990 | 23315 ft | 457 kts | 52° |
| 2026-05-05 09:35 | 26.20566 | -79.48089 | 23827 ft | 461 kts | 52° |
| 2026-05-05 09:35 | 26.24292 | -79.42205 | 24877 ft | 468 kts | 52° |
| 2026-05-05 09:35 | 26.26175 | -79.39229 | 25452 ft | 471 kts | 52° |
| 2026-05-05 09:36 | 26.28179 | -79.36343 | 25989 ft | 471 kts | 45° |
| 2026-05-05 09:36 | 26.30556 | -79.33859 | 26542 ft | 469 kts | 34° |
| 2026-05-05 09:36 | 26.33235 | -79.31796 | 27080 ft | 469 kts | 29° |
| 2026-05-05 09:36 | 26.35994 | -79.29834 | 27625 ft | 471 kts | 29° |
| 2026-05-05 09:37 | 26.38766 | -79.27875 | 28131 ft | 474 kts | 29° |
| 2026-05-05 09:37 | 26.41555 | -79.25898 | 28645 ft | 477 kts | 29° |
| 2026-05-05 09:37 | 26.43448 | -79.24554 | 28981 ft | 478 kts | 29° |
| 2026-05-05 09:37 | 26.46225 | -79.22577 | 29446 ft | 481 kts | 29° |
| 2026-05-05 09:38 | 26.49095 | -79.20531 | 29896 ft | 484 kts | 29° |
| 2026-05-05 09:38 | 26.51937 | -79.18502 | 30334 ft | 486 kts | 29° |
| 2026-05-05 09:38 | 26.54795 | -79.16461 | 30725 ft | 490 kts | 29° |
| 2026-05-05 09:38 | 26.57674 | -79.14404 | 31105 ft | 493 kts | 29° |
| 2026-05-05 09:39 | 26.60534 | -79.12358 | 31477 ft | 495 kts | 29° |
| 2026-05-05 09:39 | 26.63442 | -79.10276 | 31849 ft | 498 kts | 29° |
| 2026-05-05 09:39 | 26.66367 | -79.08181 | 32188 ft | 500 kts | 29° |
| 2026-05-05 09:39 | 26.69300 | -79.06078 | 32522 ft | 503 kts | 29° |
| 2026-05-05 09:40 | 26.72256 | -79.03959 | 32835 ft | 505 kts | 29° |
| 2026-05-05 09:40 | 26.74930 | -79.02040 | 33169 ft | 506 kts | 29° |
| 2026-05-05 09:40 | 26.77877 | -78.99925 | 33636 ft | 504 kts | 29° |
| 2026-05-05 09:40 | 26.80832 | -78.97800 | 34091 ft | 502 kts | 29° |
| 2026-05-05 09:41 | 26.83763 | -78.95692 | 34528 ft | 501 kts | 29° |
| 2026-05-05 09:41 | 26.86699 | -78.93580 | 34897 ft | 501 kts | 28° |
| 2026-05-05 09:41 | 26.89630 | -78.91470 | 35268 ft | 500 kts | 28° |
| 2026-05-05 09:41 | 26.92558 | -78.89361 | 35592 ft | 501 kts | 28° |
| 2026-05-05 09:42 | 26.95489 | -78.87249 | 35938 ft | 500 kts | 28° |
| 2026-05-05 09:42 | 26.98410 | -78.85142 | 36251 ft | 500 kts | 28° |
| 2026-05-05 09:42 | 27.01343 | -78.83026 | 36519 ft | 501 kts | 28° |
| 2026-05-05 09:42 | 27.04272 | -78.80912 | 36835 ft | 500 kts | 28° |
| 2026-05-05 09:43 | 27.07191 | -78.78802 | 37210 ft | 497 kts | 28° |
| 2026-05-05 09:43 | 27.10087 | -78.76707 | 37576 ft | 495 kts | 27° |
| 2026-05-05 09:43 | 27.12977 | -78.74617 | 37894 ft | 494 kts | 27° |
| 2026-05-05 09:43 | 27.15868 | -78.72525 | 38157 ft | 494 kts | 27° |
| 2026-05-05 09:44 | 27.18754 | -78.70435 | 38385 ft | 494 kts | 27° |
| 2026-05-05 09:44 | 27.21642 | -78.68343 | 38609 ft | 494 kts | 27° |
| 2026-05-05 09:44 | 27.24540 | -78.66266 | 38796 ft | 494 kts | 26° |
| 2026-05-05 09:44 | 27.27568 | -78.64490 | 38965 ft | 488 kts | 17° |
| 2026-05-05 09:45 | 27.30747 | -78.63275 | 39170 ft | 480 kts | 8° |
| 2026-05-05 09:45 | 27.34009 | -78.62612 | 39365 ft | 475 kts | 1° |
| 2026-05-05 09:45 | 27.37297 | -78.62168 | 39574 ft | 474 kts | 1° |
| 2026-05-05 09:45 | 27.40576 | -78.61751 | 39777 ft | 474 kts | 1° |
| 2026-05-05 09:46 | 27.43853 | -78.61334 | 39964 ft | 474 kts | 1° |
| 2026-05-05 09:46 | 27.47126 | -78.60914 | 40161 ft | 475 kts | 1° |
| 2026-05-05 09:46 | 27.50414 | -78.60490 | 40354 ft | 475 kts | 1° |
| 2026-05-05 09:46 | 27.53693 | -78.60067 | 40533 ft | 475 kts | 1° |
| 2026-05-05 09:47 | 27.56981 | -78.59640 | 40666 ft | 475 kts | 1° |
| 2026-05-05 09:47 | 27.60269 | -78.59212 | 40808 ft | 475 kts | 1° |
| 2026-05-05 09:47 | 27.63554 | -78.58783 | 40917 ft | 477 kts | 1° |
| 2026-05-05 09:47 | 27.66851 | -78.58354 | 41000 ft | 477 kts | 1° |
| 2026-05-05 09:48 | 27.73451 | -78.57495 | 41014 ft | 477 kts | 1° |
| 2026-05-05 09:48 | 27.80042 | -78.56634 | 41015 ft | 477 kts | 1° |
| 2026-05-05 09:49 | 27.86636 | -78.55775 | 41016 ft | 477 kts | 1° |
| 2026-05-05 09:49 | 27.93236 | -78.54911 | 41018 ft | 477 kts | 1° |
| 2026-05-05 09:50 | 27.99833 | -78.54048 | 41020 ft | 477 kts | 1° |
| 2026-05-05 09:50 | 28.06432 | -78.53183 | 41010 ft | 478 kts | 1° |
| 2026-05-05 09:51 | 28.13043 | -78.52315 | 41010 ft | 478 kts | 1° |
| 2026-05-05 09:51 | 28.19611 | -78.51452 | 41011 ft | 478 kts | 1° |
| 2026-05-05 09:52 | 28.26220 | -78.50583 | 41007 ft | 478 kts | 1° |
| 2026-05-05 09:52 | 28.32829 | -78.49712 | 41012 ft | 478 kts | 1° |
| 2026-05-05 09:53 | 28.39448 | -78.48839 | 41009 ft | 478 kts | 1° |
| 2026-05-05 09:53 | 28.46061 | -78.47966 | 41009 ft | 478 kts | 1° |
| 2026-05-05 09:54 | 28.52674 | -78.47091 | 41016 ft | 478 kts | 1° |
| 2026-05-05 09:54 | 28.59294 | -78.46215 | 41013 ft | 479 kts | 1° |
| 2026-05-05 09:55 | 28.65956 | -78.45332 | 41018 ft | 479 kts | 1° |
| 2026-05-05 09:55 | 28.72561 | -78.44455 | 41030 ft | 479 kts | 1° |
| 2026-05-05 09:56 | 28.79191 | -78.43574 | 41034 ft | 479 kts | 2° |
| 2026-05-05 09:56 | 28.85806 | -78.42694 | 41035 ft | 479 kts | 2° |
| 2026-05-05 09:57 | 28.92421 | -78.41813 | 41035 ft | 479 kts | 2° |
| 2026-05-05 09:57 | 28.99051 | -78.40928 | 41034 ft | 479 kts | 2° |
| 2026-05-05 09:58 | 29.05678 | -78.40043 | 41038 ft | 479 kts | 2° |
| 2026-05-05 09:58 | 29.12305 | -78.39157 | 41039 ft | 480 kts | 2° |
| 2026-05-05 09:59 | 29.18941 | -78.38268 | 41038 ft | 480 kts | 2° |
| 2026-05-05 09:59 | 29.25579 | -78.37378 | 41037 ft | 480 kts | 2° |
| 2026-05-05 10:00 | 29.32221 | -78.36486 | 41038 ft | 481 kts | 2° |
| 2026-05-05 10:00 | 29.38871 | -78.35592 | 41040 ft | 481 kts | 2° |
| 2026-05-05 10:01 | 29.45517 | -78.34751 | 41036 ft | 480 kts | 359° |
| 2026-05-05 10:01 | 29.51839 | -78.35344 | 41039 ft | 470 kts | 342° |
| 2026-05-05 10:02 | 29.58166 | -78.37248 | 41040 ft | 470 kts | 340° |
| 2026-05-05 10:02 | 29.64443 | -78.39340 | 41034 ft | 470 kts | 340° |
| 2026-05-05 10:03 | 29.70736 | -78.41435 | 41039 ft | 471 kts | 340° |
| 2026-05-05 10:03 | 29.77035 | -78.43503 | 41037 ft | 471 kts | 341° |
| 2026-05-05 10:04 | 29.83337 | -78.45559 | 41041 ft | 471 kts | 341° |
| 2026-05-05 10:04 | 29.89630 | -78.47614 | 41046 ft | 471 kts | 341° |
| 2026-05-05 10:05 | 29.95941 | -78.49678 | 41047 ft | 471 kts | 341° |
| 2026-05-05 10:05 | 30.02245 | -78.51743 | 41046 ft | 471 kts | 341° |
| 2026-05-05 10:06 | 30.08550 | -78.53812 | 41048 ft | 472 kts | 341° |
| 2026-05-05 10:06 | 30.15000 | -78.55337 | 41047 ft | 477 kts | 353° |
| 2026-05-05 10:07 | 30.21668 | -78.55006 | 41043 ft | 482 kts | 2° |
| 2026-05-05 10:07 | 30.28342 | -78.54088 | 41053 ft | 483 kts | 4° |
| 2026-05-05 10:08 | 30.35012 | -78.53080 | 41061 ft | 483 kts | 4° |
| 2026-05-05 10:08 | 30.41682 | -78.52092 | 41063 ft | 483 kts | 4° |
| 2026-05-05 10:09 | 30.48346 | -78.51073 | 41063 ft | 484 kts | 4° |
| 2026-05-05 10:09 | 30.55009 | -78.49968 | 41089 ft | 484 kts | 5° |
| 2026-05-05 10:10 | 30.61679 | -78.48864 | 41097 ft | 484 kts | 4° |
| 2026-05-05 10:10 | 30.68346 | -78.47775 | 41094 ft | 484 kts | 4° |
| 2026-05-05 10:11 | 30.75013 | -78.46691 | 41092 ft | 484 kts | 4° |
| 2026-05-05 10:11 | 30.81682 | -78.45607 | 41088 ft | 484 kts | 4° |
| 2026-05-05 10:12 | 30.88356 | -78.44520 | 41106 ft | 484 kts | 4° |
| 2026-05-05 10:12 | 30.95026 | -78.43431 | 41097 ft | 484 kts | 4° |
| 2026-05-05 10:13 | 31.01698 | -78.42340 | 41088 ft | 484 kts | 4° |
| 2026-05-05 10:13 | 31.08374 | -78.41247 | 41097 ft | 484 kts | 5° |
| 2026-05-05 10:14 | 31.15050 | -78.40153 | 41098 ft | 485 kts | 5° |
| 2026-05-05 10:14 | 31.21734 | -78.39056 | 41090 ft | 485 kts | 5° |
| 2026-05-05 10:15 | 31.28420 | -78.37957 | 41088 ft | 485 kts | 5° |
| 2026-05-05 10:15 | 31.35109 | -78.36855 | 41091 ft | 486 kts | 5° |
| 2026-05-05 10:16 | 31.41804 | -78.35752 | 41092 ft | 486 kts | 5° |
| 2026-05-05 10:16 | 31.48458 | -78.34653 | 41093 ft | 486 kts | 5° |
| 2026-05-05 10:17 | 31.55203 | -78.33538 | 41086 ft | 487 kts | 5° |
| 2026-05-05 10:17 | 31.61915 | -78.32426 | 41097 ft | 487 kts | 5° |
| 2026-05-05 10:18 | 31.67489 | -78.31502 | 41094 ft | 487 kts | 5° |
| 2026-05-05 10:18 | 31.74206 | -78.30387 | 41101 ft | 488 kts | 5° |
| 2026-05-05 10:19 | 31.82018 | -78.29088 | 41098 ft | 488 kts | 5° |
| 2026-05-05 10:19 | 31.88748 | -78.27967 | 41097 ft | 488 kts | 5° |
| 2026-05-05 10:20 | 31.94339 | -78.27035 | 41099 ft | 488 kts | 5° |
| 2026-05-05 10:20 | 32.01112 | -78.25904 | 41100 ft | 489 kts | 5° |
| 2026-05-05 10:21 | 32.07833 | -78.24657 | 41103 ft | 490 kts | 7° |
| 2026-05-05 10:21 | 32.14489 | -78.23167 | 41108 ft | 490 kts | 8° |
| 2026-05-05 10:22 | 32.21183 | -78.21659 | 41101 ft | 490 kts | 7° |
| 2026-05-05 10:22 | 32.27884 | -78.20190 | 41107 ft | 490 kts | 7° |
| 2026-05-05 10:23 | 32.34586 | -78.18740 | 41112 ft | 489 kts | 7° |
| 2026-05-05 10:23 | 32.41283 | -78.17292 | 41101 ft | 489 kts | 7° |
| 2026-05-05 10:24 | 32.47981 | -78.15840 | 41104 ft | 489 kts | 7° |
| 2026-05-05 10:24 | 32.54679 | -78.14386 | 41109 ft | 489 kts | 7° |
| 2026-05-05 10:25 | 32.61369 | -78.12930 | 41101 ft | 489 kts | 7° |
| 2026-05-05 10:25 | 32.68066 | -78.11470 | 41117 ft | 489 kts | 7° |
| 2026-05-05 10:26 | 32.74750 | -78.10011 | 41118 ft | 489 kts | 7° |
| 2026-05-05 10:26 | 32.81437 | -78.08550 | 41116 ft | 488 kts | 7° |
| 2026-05-05 10:27 | 32.88114 | -78.07088 | 41102 ft | 488 kts | 7° |
| 2026-05-05 10:27 | 32.94798 | -78.05622 | 41104 ft | 488 kts | 7° |
| 2026-05-05 10:28 | 33.01486 | -78.04154 | 41115 ft | 488 kts | 7° |
| 2026-05-05 10:28 | 33.08162 | -78.02685 | 41105 ft | 488 kts | 7° |
| 2026-05-05 10:29 | 33.14845 | -78.01213 | 41104 ft | 488 kts | 7° |
| 2026-05-05 10:29 | 33.21529 | -77.99739 | 41117 ft | 488 kts | 8° |
| 2026-05-05 10:30 | 33.28221 | -77.98260 | 41115 ft | 490 kts | 8° |
| 2026-05-05 10:30 | 33.34922 | -77.96777 | 41108 ft | 490 kts | 8° |
| 2026-05-05 10:31 | 33.41636 | -77.95289 | 41111 ft | 490 kts | 8° |
| 2026-05-05 10:31 | 33.48346 | -77.93799 | 41109 ft | 491 kts | 8° |
| 2026-05-05 10:32 | 33.55052 | -77.92308 | 41109 ft | 490 kts | 8° |
| 2026-05-05 10:32 | 33.61768 | -77.90812 | 41113 ft | 490 kts | 8° |
| 2026-05-05 10:33 | 33.68471 | -77.89317 | 41118 ft | 490 kts | 8° |
| 2026-05-05 10:33 | 33.75177 | -77.87819 | 41113 ft | 490 kts | 8° |
| 2026-05-05 10:34 | 33.81875 | -77.86312 | 41105 ft | 490 kts | 8° |
| 2026-05-05 10:34 | 33.88556 | -77.84642 | 41108 ft | 490 kts | 9° |
| 2026-05-05 10:35 | 33.95184 | -77.82928 | 41109 ft | 490 kts | 9° |
| 2026-05-05 10:35 | 34.01893 | -77.81214 | 41115 ft | 490 kts | 9° |
| 2026-05-05 10:36 | 34.08573 | -77.79524 | 41101 ft | 490 kts | 9° |
| 2026-05-05 10:36 | 34.15244 | -77.77839 | 41109 ft | 490 kts | 9° |
| 2026-05-05 10:37 | 34.21915 | -77.76152 | 41116 ft | 490 kts | 9° |
| 2026-05-05 10:37 | 34.28594 | -77.74458 | 41108 ft | 490 kts | 9° |
| 2026-05-05 10:38 | 34.35262 | -77.72765 | 41111 ft | 490 kts | 9° |
| 2026-05-05 10:38 | 34.41747 | -77.71115 | 41106 ft | 491 kts | 9° |
| 2026-05-05 10:39 | 34.48346 | -77.69433 | 41111 ft | 491 kts | 9° |
| 2026-05-05 10:39 | 34.55005 | -77.67592 | 41125 ft | 493 kts | 15° |
| 2026-05-05 10:40 | 34.61344 | -77.64370 | 41112 ft | 495 kts | 23° |
| 2026-05-05 10:40 | 34.67547 | -77.60714 | 41106 ft | 496 kts | 24° |
| 2026-05-05 10:41 | 34.73726 | -77.56982 | 41109 ft | 496 kts | 24° |
| 2026-05-05 10:41 | 34.79841 | -77.53297 | 41106 ft | 496 kts | 24° |
| 2026-05-05 10:42 | 34.89118 | -77.47727 | 41124 ft | 496 kts | 24° |
| 2026-05-05 10:43 | 34.95303 | -77.44011 | 41125 ft | 496 kts | 24° |
| 2026-05-05 10:43 | 35.01489 | -77.40288 | 41124 ft | 496 kts | 24° |
| 2026-05-05 10:44 | 35.07679 | -77.36555 | 41124 ft | 496 kts | 24° |
| 2026-05-05 10:44 | 35.13862 | -77.32820 | 41110 ft | 496 kts | 24° |
| 2026-05-05 10:45 | 35.20043 | -77.29079 | 41113 ft | 496 kts | 24° |
| 2026-05-05 10:45 | 35.26222 | -77.25334 | 41111 ft | 496 kts | 24° |
| 2026-05-05 10:46 | 35.32404 | -77.21580 | 41110 ft | 496 kts | 24° |
| 2026-05-05 10:46 | 35.38577 | -77.17826 | 41125 ft | 496 kts | 24° |
| 2026-05-05 10:47 | 35.44758 | -77.14060 | 41125 ft | 496 kts | 24° |
| 2026-05-05 10:47 | 35.50936 | -77.10289 | 41125 ft | 496 kts | 24° |
| 2026-05-05 10:48 | 35.56915 | -77.06634 | 41121 ft | 496 kts | 24° |
| 2026-05-05 10:48 | 35.63097 | -77.02848 | 41115 ft | 496 kts | 24° |
| 2026-05-05 10:49 | 35.69276 | -76.99057 | 41116 ft | 496 kts | 25° |
| 2026-05-05 10:49 | 35.75446 | -76.95265 | 41106 ft | 496 kts | 25° |
| 2026-05-05 10:50 | 35.81619 | -76.91465 | 41116 ft | 496 kts | 25° |
| 2026-05-05 10:50 | 35.87788 | -76.87662 | 41106 ft | 496 kts | 25° |
| 2026-05-05 10:51 | 35.93680 | -76.84071 | 41109 ft | 495 kts | 22° |
| 2026-05-05 10:51 | 35.99973 | -76.80816 | 41111 ft | 495 kts | 19° |
| 2026-05-05 10:52 | 36.06363 | -76.77672 | 41115 ft | 494 kts | 20° |
| 2026-05-05 10:52 | 36.12730 | -76.74457 | 41109 ft | 494 kts | 20° |
| 2026-05-05 10:53 | 36.19080 | -76.71182 | 41110 ft | 494 kts | 21° |
| 2026-05-05 10:53 | 36.25428 | -76.67884 | 41105 ft | 494 kts | 21° |
| 2026-05-05 10:54 | 36.31772 | -76.64583 | 41108 ft | 494 kts | 21° |
| 2026-05-05 10:54 | 36.37888 | -76.61398 | 41099 ft | 494 kts | 21° |
| 2026-05-05 10:55 | 36.44226 | -76.58094 | 41094 ft | 494 kts | 21° |
| 2026-05-05 10:55 | 36.50570 | -76.54781 | 41099 ft | 494 kts | 21° |
| 2026-05-05 10:56 | 36.56900 | -76.51469 | 41092 ft | 494 kts | 21° |
| 2026-05-05 10:56 | 36.63241 | -76.48146 | 41097 ft | 494 kts | 21° |
| 2026-05-05 10:57 | 36.69580 | -76.44817 | 41085 ft | 494 kts | 21° |
| 2026-05-05 10:57 | 36.75914 | -76.41485 | 41079 ft | 494 kts | 21° |
| 2026-05-05 10:58 | 36.82243 | -76.38149 | 41075 ft | 494 kts | 21° |
| 2026-05-05 10:58 | 36.88565 | -76.34812 | 41070 ft | 494 kts | 21° |
| 2026-05-05 10:59 | 36.94890 | -76.31467 | 41054 ft | 494 kts | 21° |
| 2026-05-05 10:59 | 37.01215 | -76.28115 | 41051 ft | 493 kts | 21° |
| 2026-05-05 11:00 | 37.07536 | -76.24760 | 41045 ft | 493 kts | 21° |
| 2026-05-05 11:00 | 37.13847 | -76.21404 | 41044 ft | 493 kts | 21° |
| 2026-05-05 11:01 | 37.19091 | -76.18611 | 41047 ft | 493 kts | 21° |
| 2026-05-05 11:01 | 37.25408 | -76.15240 | 41047 ft | 493 kts | 21° |
| 2026-05-05 11:02 | 37.31723 | -76.11865 | 41044 ft | 493 kts | 21° |
| 2026-05-05 11:02 | 37.38024 | -76.08491 | 41044 ft | 492 kts | 21° |
| 2026-05-05 11:03 | 37.44325 | -76.05110 | 41045 ft | 492 kts | 21° |
| 2026-05-05 11:03 | 37.50625 | -76.01724 | 41044 ft | 492 kts | 21° |
| 2026-05-05 11:04 | 37.56925 | -75.98332 | 41048 ft | 492 kts | 21° |
| 2026-05-05 11:04 | 37.62982 | -75.94319 | 41042 ft | 494 kts | 30° |
| 2026-05-05 11:05 | 37.68776 | -75.89641 | 41049 ft | 494 kts | 32° |
| 2026-05-05 11:05 | 37.74520 | -75.84859 | 41045 ft | 494 kts | 32° |
| 2026-05-05 11:06 | 37.80255 | -75.80070 | 41043 ft | 494 kts | 32° |
| 2026-05-05 11:06 | 37.85997 | -75.75283 | 41041 ft | 494 kts | 32° |
| 2026-05-05 11:07 | 37.91742 | -75.70494 | 41044 ft | 494 kts | 32° |
| 2026-05-05 11:07 | 37.97478 | -75.65704 | 41036 ft | 494 kts | 32° |
| 2026-05-05 11:08 | 38.03221 | -75.60899 | 41037 ft | 494 kts | 32° |
| 2026-05-05 11:08 | 38.08880 | -75.56156 | 41037 ft | 494 kts | 32° |
| 2026-05-05 11:09 | 38.14656 | -75.51305 | 41034 ft | 494 kts | 32° |
| 2026-05-05 11:09 | 38.20344 | -75.46517 | 41025 ft | 494 kts | 32° |
| 2026-05-05 11:10 | 38.26235 | -75.42080 | 41016 ft | 492 kts | 22° |
| 2026-05-05 11:10 | 38.32765 | -75.39688 | 41011 ft | 488 kts | 9° |
| 2026-05-05 11:11 | 38.39458 | -75.38182 | 41012 ft | 488 kts | 7° |
| 2026-05-05 11:11 | 38.46201 | -75.36803 | 41018 ft | 488 kts | 7° |
| 2026-05-05 11:12 | 38.52905 | -75.35416 | 41010 ft | 488 kts | 7° |
| 2026-05-05 11:12 | 38.59605 | -75.33999 | 41009 ft | 488 kts | 7° |
| 2026-05-05 11:13 | 38.66303 | -75.32569 | 41000 ft | 488 kts | 7° |
| 2026-05-05 11:13 | 38.72988 | -75.31131 | 40997 ft | 488 kts | 8° |
| 2026-05-05 11:14 | 38.79454 | -75.28450 | 41003 ft | 491 kts | 25° |
| 2026-05-05 11:14 | 38.85521 | -75.24398 | 40991 ft | 492 kts | 27° |
| 2026-05-05 11:15 | 38.91502 | -75.20122 | 40990 ft | 492 kts | 27° |
| 2026-05-05 11:15 | 38.97485 | -75.15812 | 40980 ft | 492 kts | 27° |
| 2026-05-05 11:16 | 39.03463 | -75.11530 | 40980 ft | 492 kts | 27° |
| 2026-05-05 11:16 | 39.09453 | -75.07248 | 40982 ft | 492 kts | 27° |
| 2026-05-05 11:17 | 39.15391 | -75.02999 | 40981 ft | 492 kts | 27° |
| 2026-05-05 11:17 | 39.21175 | -74.98851 | 40981 ft | 492 kts | 27° |
| 2026-05-05 11:18 | 39.27065 | -74.94359 | 40974 ft | 493 kts | 32° |
| 2026-05-05 11:18 | 39.32718 | -74.89335 | 40972 ft | 493 kts | 33° |
| 2026-05-05 11:19 | 39.38324 | -74.84223 | 40972 ft | 493 kts | 34° |
| 2026-05-05 11:19 | 39.43923 | -74.79095 | 40973 ft | 493 kts | 34° |
| 2026-05-05 11:20 | 39.49523 | -74.73967 | 40970 ft | 493 kts | 34° |
| 2026-05-05 11:20 | 39.55121 | -74.68838 | 40969 ft | 493 kts | 34° |
| 2026-05-05 11:21 | 39.60719 | -74.63700 | 40972 ft | 493 kts | 34° |
| 2026-05-05 11:21 | 39.66312 | -74.58556 | 40962 ft | 493 kts | 34° |
| 2026-05-05 11:22 | 39.71904 | -74.53404 | 40963 ft | 493 kts | 34° |
| 2026-05-05 11:22 | 39.77491 | -74.48244 | 40965 ft | 493 kts | 34° |
| 2026-05-05 11:23 | 39.83077 | -74.43075 | 40966 ft | 493 kts | 34° |
| 2026-05-05 11:23 | 39.88661 | -74.37897 | 40961 ft | 492 kts | 34° |
| 2026-05-05 11:24 | 39.94215 | -74.32737 | 40961 ft | 492 kts | 34° |
| 2026-05-05 11:24 | 39.99793 | -74.27544 | 40961 ft | 492 kts | 34° |
| 2026-05-05 11:25 | 40.05363 | -74.22348 | 40964 ft | 492 kts | 34° |
| 2026-05-05 11:25 | 40.10925 | -74.17151 | 40962 ft | 492 kts | 34° |
| 2026-05-05 11:26 | 40.16491 | -74.11935 | 40961 ft | 492 kts | 34° |
| 2026-05-05 11:26 | 40.22052 | -74.06713 | 40962 ft | 492 kts | 34° |
| 2026-05-05 11:27 | 40.27609 | -74.01485 | 40960 ft | 492 kts | 34° |
| 2026-05-05 11:27 | 40.33187 | -73.96278 | 40959 ft | 492 kts | 31° |
| 2026-05-05 11:28 | 40.39201 | -73.92069 | 40952 ft | 490 kts | 24° |
| 2026-05-05 11:28 | 40.45348 | -73.88225 | 40952 ft | 490 kts | 23° |
| 2026-05-05 11:29 | 40.51527 | -73.84429 | 40954 ft | 490 kts | 23° |
| 2026-05-05 11:29 | 40.57697 | -73.80622 | 40952 ft | 490 kts | 23° |
| 2026-05-05 11:30 | 40.63970 | -73.77159 | 40954 ft | 487 kts | 14° |
| 2026-05-05 11:30 | 40.70534 | -73.75002 | 40952 ft | 487 kts | 11° |
| 2026-05-05 11:31 | 40.77147 | -73.73069 | 40945 ft | 487 kts | 10° |
| 2026-05-05 11:31 | 40.83733 | -73.71180 | 40943 ft | 487 kts | 10° |
| 2026-05-05 11:32 | 40.90363 | -73.69259 | 40943 ft | 487 kts | 10° |
| 2026-05-05 11:32 | 40.96979 | -73.67325 | 40944 ft | 487 kts | 10° |
| 2026-05-05 11:33 | 41.03592 | -73.65384 | 40944 ft | 487 kts | 10° |
| 2026-05-05 11:33 | 41.10201 | -73.63441 | 40943 ft | 487 kts | 10° |
| 2026-05-05 11:34 | 41.16818 | -73.61491 | 40944 ft | 487 kts | 10° |
| 2026-05-05 11:34 | 41.23428 | -73.59540 | 40944 ft | 487 kts | 10° |
| 2026-05-05 11:35 | 41.30081 | -73.57904 | 40944 ft | 485 kts | 5° |
| 2026-05-05 11:35 | 41.36791 | -73.56904 | 40943 ft | 485 kts | 4° |
| 2026-05-05 11:36 | 41.43501 | -73.56003 | 40943 ft | 485 kts | 3° |
| 2026-05-05 11:36 | 41.50212 | -73.55112 | 40935 ft | 485 kts | 3° |
| 2026-05-05 11:37 | 41.56923 | -73.54208 | 40933 ft | 485 kts | 4° |
| 2026-05-05 11:37 | 41.63639 | -73.53296 | 40924 ft | 485 kts | 4° |
| 2026-05-05 11:38 | 41.70346 | -73.52382 | 40915 ft | 484 kts | 4° |
| 2026-05-05 11:38 | 41.77050 | -73.51465 | 40907 ft | 484 kts | 4° |
| 2026-05-05 11:39 | 41.83751 | -73.50547 | 40906 ft | 484 kts | 4° |
| 2026-05-05 11:39 | 41.90460 | -73.49627 | 40895 ft | 484 kts | 4° |
| 2026-05-05 11:40 | 41.97160 | -73.48707 | 40901 ft | 484 kts | 4° |
| 2026-05-05 11:40 | 42.03865 | -73.47783 | 40893 ft | 484 kts | 3° |
| 2026-05-05 11:41 | 42.10568 | -73.46858 | 40881 ft | 484 kts | 3° |
| 2026-05-05 11:41 | 42.17275 | -73.45931 | 40874 ft | 484 kts | 3° |
| 2026-05-05 11:42 | 42.23972 | -73.45003 | 40872 ft | 484 kts | 3° |
| 2026-05-05 11:42 | 42.29547 | -73.44229 | 40875 ft | 484 kts | 3° |
| 2026-05-05 11:43 | 42.36246 | -73.43296 | 40863 ft | 484 kts | 3° |
| 2026-05-05 11:43 | 42.42955 | -73.42361 | 40876 ft | 484 kts | 3° |
| 2026-05-05 11:44 | 42.49659 | -73.41424 | 40875 ft | 484 kts | 3° |
| 2026-05-05 11:44 | 42.56360 | -73.40485 | 40872 ft | 484 kts | 3° |
| 2026-05-05 11:45 | 42.63057 | -73.39545 | 40862 ft | 484 kts | 3° |
| 2026-05-05 11:45 | 42.69768 | -73.38601 | 40861 ft | 484 kts | 3° |
| 2026-05-05 11:46 | 42.76469 | -73.37657 | 40879 ft | 484 kts | 3° |
| 2026-05-05 11:46 | 42.83181 | -73.36709 | 40860 ft | 484 kts | 3° |
| 2026-05-05 11:47 | 42.89885 | -73.35760 | 40861 ft | 484 kts | 3° |
| 2026-05-05 11:47 | 42.96585 | -73.34811 | 40860 ft | 484 kts | 4° |
| 2026-05-05 11:48 | 43.06312 | -73.34982 | 40849 ft | 481 kts | 354° |
| 2026-05-05 11:48 | 43.12992 | -73.35571 | 40841 ft | 481 kts | 353° |
| 2026-05-05 11:49 | 43.19665 | -73.36196 | 40832 ft | 481 kts | 353° |
| 2026-05-05 11:49 | 43.26351 | -73.36810 | 40828 ft | 481 kts | 354° |
| 2026-05-05 11:50 | 43.33035 | -73.37415 | 40823 ft | 481 kts | 354° |
| 2026-05-05 11:50 | 43.39711 | -73.38016 | 40822 ft | 481 kts | 354° |
| 2026-05-05 11:51 | 43.46389 | -73.38619 | 40823 ft | 481 kts | 353° |
| 2026-05-05 11:51 | 43.53072 | -73.39225 | 40736 ft | 481 kts | 353° |
| 2026-05-05 11:52 | 43.56410 | -73.39528 | 40516 ft | 481 kts | 353° |
| 2026-05-05 11:52 | 43.59752 | -73.39831 | 40254 ft | 480 kts | 353° |
| 2026-05-05 11:52 | 43.63076 | -73.40133 | 40003 ft | 479 kts | 353° |
| 2026-05-05 11:52 | 43.66394 | -73.40435 | 39757 ft | 477 kts | 353° |
| 2026-05-05 11:53 | 43.69704 | -73.40737 | 39509 ft | 476 kts | 353° |
| 2026-05-05 11:53 | 43.73001 | -73.41057 | 39248 ft | 474 kts | 352° |
| 2026-05-05 11:53 | 43.76269 | -73.41431 | 38734 ft | 470 kts | 352° |
| 2026-05-05 11:53 | 43.79525 | -73.41813 | 38098 ft | 469 kts | 352° |
| 2026-05-05 11:54 | 43.82774 | -73.42192 | 37418 ft | 468 kts | 352° |
| 2026-05-05 11:54 | 43.86012 | -73.42565 | 36726 ft | 467 kts | 352° |
| 2026-05-05 11:54 | 43.89246 | -73.42936 | 36024 ft | 467 kts | 352° |
| 2026-05-05 11:54 | 43.92483 | -73.43307 | 35298 ft | 467 kts | 352° |
| 2026-05-05 11:55 | 43.95731 | -73.43679 | 34505 ft | 469 kts | 352° |
| 2026-05-05 11:55 | 43.98987 | -73.44052 | 33664 ft | 471 kts | 352° |
| 2026-05-05 11:55 | 44.02270 | -73.44428 | 32803 ft | 473 kts | 352° |
| 2026-05-05 11:55 | 44.05556 | -73.44803 | 31909 ft | 476 kts | 352° |
| 2026-05-05 11:56 | 44.08865 | -73.45183 | 30988 ft | 478 kts | 352° |
| 2026-05-05 11:56 | 44.12185 | -73.45564 | 30044 ft | 480 kts | 352° |
| 2026-05-05 11:56 | 44.15528 | -73.45950 | 29034 ft | 483 kts | 352° |
| 2026-05-05 11:56 | 44.18866 | -73.46333 | 28323 ft | 479 kts | 352° |
| 2026-05-05 11:57 | 44.22166 | -73.46710 | 27819 ft | 471 kts | 352° |
| 2026-05-05 11:57 | 44.25426 | -73.47083 | 27010 ft | 470 kts | 352° |
| 2026-05-05 11:57 | 44.28674 | -73.47458 | 26265 ft | 467 kts | 352° |
| 2026-05-05 11:57 | 44.31883 | -73.47827 | 25562 ft | 464 kts | 352° |
| 2026-05-05 11:58 | 44.35092 | -73.48197 | 24870 ft | 460 kts | 352° |
| 2026-05-05 11:58 | 44.38262 | -73.48564 | 24182 ft | 456 kts | 352° |
| 2026-05-05 11:58 | 44.41410 | -73.48928 | 23503 ft | 452 kts | 352° |
| 2026-05-05 11:58 | 44.44536 | -73.49290 | 22821 ft | 448 kts | 352° |
| 2026-05-05 11:59 | 44.47634 | -73.49651 | 22146 ft | 445 kts | 352° |
| 2026-05-05 11:59 | 44.50704 | -73.50007 | 21467 ft | 442 kts | 352° |
| 2026-05-05 11:59 | 44.53750 | -73.50361 | 20795 ft | 438 kts | 352° |
| 2026-05-05 11:59 | 44.56777 | -73.50714 | 20112 ft | 435 kts | 352° |
| 2026-05-05 12:00 | 44.59750 | -73.51061 | 19442 ft | 432 kts | 352° |
| 2026-05-05 12:00 | 44.62732 | -73.51410 | 18755 ft | 429 kts | 352° |
| 2026-05-05 12:00 | 44.65672 | -73.51754 | 18076 ft | 426 kts | 352° |
| 2026-05-05 12:00 | 44.68620 | -73.52098 | 17383 ft | 423 kts | 352° |
| 2026-05-05 12:01 | 44.71523 | -73.52440 | 16902 ft | 415 kts | 352° |
| 2026-05-05 12:01 | 44.74400 | -73.52780 | 16324 ft | 412 kts | 352° |
| 2026-05-05 12:01 | 44.77245 | -73.53096 | 15646 ft | 411 kts | 352° |
| 2026-05-05 12:01 | 44.80088 | -73.53438 | 14949 ft | 412 kts | 352° |
| 2026-05-05 12:02 | 44.82931 | -73.53797 | 14253 ft | 407 kts | 352° |
| 2026-05-05 12:02 | 44.85751 | -73.54135 | 13555 ft | 405 kts | 352° |
| 2026-05-05 12:02 | 44.88541 | -73.54459 | 12861 ft | 400 kts | 352° |
| 2026-05-05 12:02 | 44.91305 | -73.54756 | 12173 ft | 396 kts | 353° |
| 2026-05-05 12:03 | 44.94041 | -73.55051 | 11484 ft | 392 kts | 352° |
| 2026-05-05 12:03 | 44.96726 | -73.55347 | 11176 ft | 378 kts | 352° |
| 2026-05-05 12:03 | 44.99289 | -73.55620 | 11073 ft | 362 kts | 353° |
| 2026-05-05 12:03 | 45.01739 | -73.55881 | 10964 ft | 346 kts | 352° |
| 2026-05-05 12:04 | 45.04088 | -73.56129 | 10848 ft | 329 kts | 352° |
| 2026-05-05 12:04 | 45.06319 | -73.56383 | 10710 ft | 315 kts | 352° |
| 2026-05-05 12:04 | 45.08412 | -73.56617 | 10569 ft | 303 kts | 352° |
| 2026-05-05 12:04 | 45.10478 | -73.56851 | 10435 ft | 294 kts | 352° |
| 2026-05-05 12:05 | 45.12515 | -73.57080 | 10066 ft | 293 kts | 352° |
| 2026-05-05 12:05 | 45.14554 | -73.57307 | 9713 ft | 297 kts | 352° |
| 2026-05-05 12:05 | 45.16635 | -73.57541 | 9359 ft | 302 kts | 352° |
| 2026-05-05 12:05 | 45.18732 | -73.57771 | 9028 ft | 302 kts | 352° |
| 2026-05-05 12:06 | 45.20822 | -73.58005 | 8699 ft | 301 kts | 352° |
| 2026-05-05 12:06 | 45.22907 | -73.58238 | 8359 ft | 299 kts | 352° |
| 2026-05-05 12:06 | 45.24976 | -73.58464 | 8018 ft | 297 kts | 352° |
| 2026-05-05 12:06 | 45.27032 | -73.58691 | 7683 ft | 295 kts | 352° |
| 2026-05-05 12:07 | 45.29081 | -73.58915 | 7355 ft | 295 kts | 352° |
| 2026-05-05 12:07 | 45.31118 | -73.59144 | 7028 ft | 293 kts | 352° |
| 2026-05-05 12:07 | 45.33144 | -73.59366 | 6694 ft | 292 kts | 352° |
| 2026-05-05 12:07 | 45.35170 | -73.59586 | 6372 ft | 290 kts | 352° |
| 2026-05-05 12:08 | 45.37178 | -73.59806 | 6049 ft | 288 kts | 352° |
| 2026-05-05 12:08 | 45.39180 | -73.59685 | 5721 ft | 292 kts | 11° |
| 2026-05-05 12:08 | 45.41016 | -73.58489 | 5397 ft | 292 kts | 31° |
| 2026-05-05 12:08 | 45.42673 | -73.56899 | 5244 ft | 281 kts | 34° |
| 2026-05-05 12:09 | 45.44242 | -73.55350 | 5131 ft | 268 kts | 34° |
| 2026-05-05 12:09 | 45.45676 | -73.53952 | 5018 ft | 256 kts | 33° |
| 2026-05-05 12:09 | 45.47063 | -73.52611 | 4870 ft | 247 kts | 33° |
| 2026-05-05 12:09 | 45.48479 | -73.51239 | 4625 ft | 244 kts | 33° |
| 2026-05-05 12:10 | 45.49884 | -73.49879 | 4404 ft | 244 kts | 33° |
| 2026-05-05 12:10 | 45.51281 | -73.48532 | 4173 ft | 242 kts | 33° |
| 2026-05-05 12:10 | 45.52668 | -73.47194 | 4036 ft | 242 kts | 33° |
| 2026-05-05 12:10 | 45.54061 | -73.45855 | 4028 ft | 241 kts | 34° |
| 2026-05-05 12:11 | 45.55315 | -73.44641 | 4021 ft | 240 kts | 34° |
| 2026-05-05 12:11 | 45.56685 | -73.43207 | 4023 ft | 241 kts | 40° |
| 2026-05-05 12:11 | 45.57937 | -73.41631 | 4019 ft | 241 kts | 43° |
| 2026-05-05 12:11 | 45.58734 | -73.40590 | 4019 ft | 241 kts | 43° |
| 2026-05-05 12:12 | 45.60087 | -73.38808 | 4038 ft | 239 kts | 43° |
| 2026-05-05 12:12 | 45.61299 | -73.37170 | 4025 ft | 240 kts | 44° |
| 2026-05-05 12:12 | 45.62292 | -73.35827 | 3807 ft | 237 kts | 44° |
| 2026-05-05 12:12 | 45.63484 | -73.34256 | 3600 ft | 238 kts | 40° |
| 2026-05-05 12:13 | 45.64901 | -73.33093 | 3559 ft | 229 kts | 17° |
| 2026-05-05 12:13 | 45.66392 | -73.32932 | 3579 ft | 204 kts | 346° |
| 2026-05-05 12:13 | 45.67623 | -73.33755 | 3602 ft | 194 kts | 315° |
| 2026-05-05 12:13 | 45.68360 | -73.35291 | 3599 ft | 187 kts | 282° |
| 2026-05-05 12:14 | 45.68242 | -73.37028 | 3598 ft | 179 kts | 239° |
| 2026-05-05 12:14 | 45.67464 | -73.38392 | 3526 ft | 178 kts | 231° |
| 2026-05-05 12:14 | 45.67027 | -73.40063 | 3447 ft | 181 kts | 252° |
| 2026-05-05 12:14 | 45.66670 | -73.41778 | 3320 ft | 180 kts | 249° |
| 2026-05-05 12:15 | 45.66266 | -73.43441 | 3195 ft | 180 kts | 247° |
| 2026-05-05 12:15 | 45.65820 | -73.45110 | 3065 ft | 179 kts | 246° |
| 2026-05-05 12:15 | 45.65402 | -73.46600 | 3002 ft | 178 kts | 245° |
| 2026-05-05 12:15 | 45.64914 | -73.48295 | 3003 ft | 178 kts | 245° |
| 2026-05-05 12:16 | 45.64437 | -73.49924 | 2992 ft | 178 kts | 244° |
| 2026-05-05 12:16 | 45.63956 | -73.51553 | 2991 ft | 178 kts | 244° |
| 2026-05-05 12:16 | 45.63451 | -73.53145 | 2989 ft | 178 kts | 239° |
| 2026-05-05 12:16 | 45.62712 | -73.54551 | 2992 ft | 176 kts | 226° |
| 2026-05-05 12:17 | 45.61843 | -73.55783 | 2992 ft | 176 kts | 222° |
| 2026-05-05 12:17 | 45.60954 | -73.56981 | 2991 ft | 176 kts | 222° |
| 2026-05-05 12:17 | 45.60052 | -73.58169 | 2991 ft | 176 kts | 221° |
| 2026-05-05 12:17 | 45.59153 | -73.59353 | 2969 ft | 177 kts | 222° |
| 2026-05-05 12:18 | 45.58255 | -73.60548 | 2775 ft | 176 kts | 222° |
| 2026-05-05 12:18 | 45.57365 | -73.61726 | 2548 ft | 175 kts | 221° |
| 2026-05-05 12:18 | 45.56467 | -73.62905 | 2314 ft | 175 kts | 221° |
| 2026-05-05 12:18 | 45.55568 | -73.64086 | 2064 ft | 177 kts | 222° |
| 2026-05-05 12:19 | 45.54681 | -73.65253 | 1831 ft | 166 kts | 221° |
| 2026-05-05 12:19 | 45.53866 | -73.66324 | 1628 ft | 153 kts | 221° |
| 2026-05-05 12:19 | 45.53115 | -73.67311 | 1425 ft | 142 kts | 221° |
| 2026-05-05 12:19 | 45.52415 | -73.68229 | 1253 ft | 131 kts | 221° |
| 2026-05-05 12:20 | 45.51761 | -73.69087 | 1080 ft | 126 kts | 221° |
| 2026-05-05 12:20 | 45.51115 | -73.69936 | 906 ft | 126 kts | 221° |
| 2026-05-05 12:20 | 45.50467 | -73.70787 | 735 ft | 127 kts | 221° |
| 2026-05-05 12:20 | 45.49817 | -73.71640 | 572 ft | 127 kts | 222° |
| 2026-05-05 12:21 | 45.49165 | -73.72495 | 395 ft | 127 kts | 221° |
| 2026-05-05 12:21 | 45.48520 | -73.73340 | 235 ft | 126 kts | 222° |
| 2026-05-05 12:21 | 45.47881 | -73.74180 | 117 ft | 119 kts | 223° |
| 2026-05-05 12:21 | 45.47376 | -73.74841 | 119 ft | 78 kts | 223° |
| 2026-05-05 12:22 | 45.47081 | -73.75227 | 117 ft | 40 kts | 223° |
| 2026-05-05 12:22 | 45.46888 | -73.75478 | 112 ft | 34 kts | 220° |
| 2026-05-05 12:22 | 45.46718 | -73.75594 | 113 ft | 25 kts | 194° |
| 2026-05-05 12:22 | 45.46603 | -73.75633 | 109 ft | 0 kts | 194° |
| 2026-05-05 12:23 | 45.46567 | -73.75645 | 109 ft | 7 kts | 193° |
| 2026-05-05 12:24 | 45.46559 | -73.75647 | 110 ft | 5 kts | 193° |
| 2026-05-05 12:24 | 45.46501 | -73.75667 | 111 ft | 9 kts | 193° |
| 2026-05-05 12:24 | 45.46462 | -73.75680 | 110 ft | 9 kts | 193° |
| 2026-05-05 12:24 | 45.46402 | -73.75699 | 110 ft | 9 kts | 192° |
| 2026-05-05 12:25 | 45.46340 | -73.75719 | 110 ft | 9 kts | 193° |
| 2026-05-05 12:25 | 45.46285 | -73.75729 | 111 ft | 7 kts | 181° |
| 2026-05-05 12:25 | 45.46230 | -73.75726 | 109 ft | 9 kts | 177° |
| 2026-05-05 12:25 | 45.46206 | -73.75725 | 109 ft | 0 kts | 177° |
| 2026-05-05 12:26 | 45.46184 | -73.75723 | 109 ft | 11 kts | 175° |
| 2026-05-05 12:26 | 45.46137 | -73.75665 | 108 ft | 8 kts | 104° |
| 2026-05-05 12:26 | 45.46138 | -73.75586 | 108 ft | 8 kts | 88° |
| 2026-05-05 12:27 | 45.46138 | -73.75511 | 108 ft | 12 kts | 89° |
| 2026-05-05 12:27 | 45.46136 | -73.75402 | 106 ft | 6 kts | 108° |
| 2026-05-05 12:27 | 45.46112 | -73.75369 | 106 ft | 3 kts | 153° |
| 2026-05-05 12:27 | 45.46082 | -73.75374 | 108 ft | 6 kts | 206° |
| 2026-05-05 12:28 | 45.46075 | -73.75383 | 110 ft | 6 kts | 223° |
| 2026-05-05 12:28 | 45.46018 | -73.75444 | 111 ft | 9 kts | 199° |
| 2026-05-05 12:28 | 45.45989 | -73.75456 | 111 ft | 0 kts | 195° |